Time;durP1;ratioP1;P1;durP2;ratioP2;P2;SDS_P1;SDS_P2;PMS_P1;PMS_P2;Temp;Humidity;BMP_temperature;BMP_pressure;BME280_temperature;BME280_humidity;BME280_pressure;Samples;Min_cycle;Max_cycle;Signal;HPM_P1;HPM_P2
2023/10/20 00:02:08;;;;;;;;;;;;;;;17.71;47.08;100279.72;4933210;29;1155;-50
2023/10/20 00:04:33;;;;;;;;;;;;;;;17.32;47.99;100275.22;4932182;29;1162;-56
2023/10/20 00:06:59;;;;;;;;;;;;;;;17.04;47.35;100275.75;4939116;29;1057;-49
2023/10/20 00:09:24;;;;;;;;;;;;;;;16.92;46.55;100272.56;4926511;29;1114;-54
2023/10/20 00:11:51;;;;;;;;;;;;;;;18.09;47.22;100263.31;4932291;29;1092;-47
2023/10/20 00:14:17;;;;;;;;;;;;;;;17.22;47.88;100257.75;4933960;29;1128;-51
2023/10/20 00:16:42;;;;;;;;;;;;;;;16.94;47.19;100262.09;4936454;29;1960;-52
2023/10/20 00:19:08;;;;;;;;;;;;;;;17.50;47.66;100249.75;4923632;29;1125;-51
2023/10/20 00:21:35;;;;;;;;;;;;;;;17.50;47.97;100248.91;4936522;29;1118;-52
2023/10/20 00:24:00;;;;;;;;;;;;;;;17.16;47.33;100244.34;4937654;29;899;-49
2023/10/20 00:26:26;;;;;;;;;;;;;;;16.91;46.77;100237.97;4936366;29;1118;-48
2023/10/20 00:28:52;;;;;;;;;;;;;;;16.94;46.05;100240.13;4935611;29;1233;-51
2023/10/20 00:31:18;;;;;;;;;;;;;;;17.75;47.46;100239.53;4942685;29;1168;-51
2023/10/20 00:33:45;;;;;;;;;;;;;;;17.14;47.61;100241.03;4942637;29;1239;-53
2023/10/20 00:36:11;;;;;;;;;;;;;;;17.00;46.58;100236.25;4940294;29;1963;-50
2023/10/20 00:38:37;;;;;;;;;;;;;;;16.86;45.75;100241.56;4941010;29;1299;-50
2023/10/20 00:41:02;;;;;;;;;;;;;;;17.44;46.73;100240.72;4935753;29;1074;-52
2023/10/20 00:43:40;;;;;;;;;;;;;;;17.27;47.47;100237.63;4938934;29;1257;-48
2023/10/20 00:46:06;;;;;;;;;;;;;;;16.88;46.90;100227.53;4942176;29;1049;-50
2023/10/20 00:48:32;;;;;;;;;;;;;;;17.83;47.13;100216.88;4929861;29;1136;-50
2023/10/20 00:50:59;;;;;;;;;;;;;;;17.02;47.49;100216.72;4941459;29;1057;-52
2023/10/20 00:53:25;;;;;;;;;;;;;;;16.96;46.37;100215.97;4941471;29;1141;-49
2023/10/20 00:55:51;;;;;;;;;;;;;;;16.77;46.06;100210.34;4940839;29;1972;-50
2023/10/20 00:58:16;;;;;;;;;;;;;;;17.81;47.05;100224.63;4912156;29;1132;-51
2023/10/20 01:00:42;;;;;;;;;;;;;;;17.20;47.30;100212.44;4941103;29;1179;-49
2023/10/20 01:03:08;;;;;;;;;;;;;;;17.94;47.51;100215.66;4939877;29;1303;-54
2023/10/20 01:05:33;;;;;;;;;;;;;;;18.26;47.54;100213.28;4944591;29;1113;-51
2023/10/20 01:07:59;;;;;;;;;;;;;;;17.44;47.90;100218.72;4924768;29;1230;-52
2023/10/20 01:10:24;;;;;;;;;;;;;;;17.16;47.29;100228.66;4940306;29;1609;-51
2023/10/20 01:12:50;;;;;;;;;;;;;;;17.06;46.55;100218.59;4941478;29;849;-52
2023/10/20 01:15:16;;;;;;;;;;;;;;;17.56;47.77;100223.00;4941570;29;1065;-50
2023/10/20 01:17:41;;;;;;;;;;;;;;;17.11;47.32;100220.50;4941465;29;1910;-51
2023/10/20 01:20:07;;;;;;;;;;;;;;;17.33;47.27;100222.69;4932792;29;1014;-51
2023/10/20 01:22:33;;;;;;;;;;;;;;;17.72;47.84;100227.19;4921945;29;1062;-49
2023/10/20 01:24:59;;;;;;;;;;;;;;;17.18;47.42;100215.47;4932199;29;992;-51
2023/10/20 01:27:24;;;;;;;;;;;;;;;18.41;47.48;100213.03;4935710;29;1143;-50
2023/10/20 01:29:50;;;;;;;;;;;;;;;17.48;47.99;100215.41;4934559;29;1018;-46
2023/10/20 01:32:15;;;;;;;;;;;;;;;17.10;47.35;100222.41;4935477;29;1209;-47
2023/10/20 01:34:41;;;;;;;;;;;;;;;17.02;46.23;100209.28;4941183;29;1034;-48
2023/10/20 01:37:10;;;;;;;;;;;;;;;17.30;46.74;100200.50;4928250;29;1914;-46
2023/10/20 01:39:35;;;;;;;;;;;;;;;17.40;47.28;100203.97;4933695;29;1160;-47
2023/10/20 01:42:01;;;;;;;;;;;;;;;17.04;46.90;100206.25;4935884;29;1129;-46
2023/10/20 01:44:26;;;;;;;;;;;;;;;17.30;46.90;100211.50;4941251;29;1109;-48
2023/10/20 01:46:52;;;;;;;;;;;;;;;17.56;47.67;100201.03;4928462;29;1168;-49
2023/10/20 01:49:17;;;;;;;;;;;;;;;17.18;47.18;100203.63;4920696;29;957;-50
2023/10/20 01:51:43;;;;;;;;;;;;;;;16.90;46.58;100203.38;4935610;29;1156;-52
2023/10/20 01:54:08;;;;;;;;;;;;;;;16.76;45.89;100193.06;4941148;29;1108;-50
2023/10/20 01:56:34;;;;;;;;;;;;;;;16.82;45.06;100202.06;4932903;29;1960;-52
2023/10/20 01:59:01;;;;;;;;;;;;;;;17.85;46.79;100189.91;4936754;29;1632;-50
2023/10/20 02:01:27;;;;;;;;;;;;;;;17.22;47.48;100191.78;4926494;29;1594;-49
2023/10/20 02:03:53;;;;;;;;;;;;;;;16.90;46.64;100186.91;4941124;29;934;-51
2023/10/20 02:06:18;;;;;;;;;;;;;;;17.86;47.12;100183.28;4940030;29;1117;-50
2023/10/20 02:08:43;;;;;;;;;;;;;;;17.22;47.11;100177.22;4928307;29;1132;-50
2023/10/20 02:11:09;;;;;;;;;;;;;;;16.96;46.73;100180.25;4927524;29;1554;-48
2023/10/20 02:13:35;;;;;;;;;;;;;;;17.98;47.09;100182.03;4940255;29;1198;-49
2023/10/20 02:16:00;;;;;;;;;;;;;;;17.42;47.92;100185.22;4928414;29;1966;-50
2023/10/20 02:18:26;;;;;;;;;;;;;;;17.05;47.40;100178.50;4940731;29;1033;-52
2023/10/20 02:21:03;;;;;;;;;;;;;;;17.77;47.47;100183.13;4927863;29;1144;-49
2023/10/20 02:23:34;;;;;;;;;;;;;;;17.22;47.34;100188.22;4931852;29;1109;-51
2023/10/20 02:26:00;;;;;;;;;;;;;;;16.97;46.43;100184.66;4938368;29;1124;-50
2023/10/20 02:28:26;;;;;;;;;;;;;;;18.06;47.02;100176.72;4930008;29;1038;-51
2023/10/20 02:30:52;;;;;;;;;;;;;;;17.24;47.39;100180.50;4940023;29;1033;-51
2023/10/20 02:33:18;;;;;;;;;;;;;;;17.00;46.72;100180.47;4931806;29;1101;-50
2023/10/20 02:35:44;;;;;;;;;;;;;;;17.67;47.21;100169.53;4924283;29;1120;-48
2023/10/20 02:38:10;;;;;;;;;;;;;;;17.13;47.16;100171.56;4930964;29;2036;-49
2023/10/20 02:40:35;;;;;;;;;;;;;;;16.91;46.44;100175.66;4920123;29;1287;-48
2023/10/20 02:43:01;;;;;;;;;;;;;;;17.94;47.02;100177.13;4919664;29;1118;-49
2023/10/20 02:45:26;;;;;;;;;;;;;;;17.30;47.08;100171.09;4936013;29;1067;-50
2023/10/20 02:47:52;;;;;;;;;;;;;;;17.01;46.43;100174.72;4934374;29;1213;-49
2023/10/20 02:50:18;;;;;;;;;;;;;;;16.86;45.75;100180.34;4925559;29;1220;-51
2023/10/20 02:52:44;;;;;;;;;;;;;;;16.75;45.26;100182.34;4921189;29;1038;-53
2023/10/20 02:55:09;;;;;;;;;;;;;;;17.66;47.10;100178.88;4920958;29;1129;-50
2023/10/20 02:57:36;;;;;;;;;;;;;;;16.97;47.45;100192.88;4927169;29;1914;-52
2023/10/20 03:00:04;;;;;;;;;;;;;;;18.30;47.17;100181.31;4929455;29;1144;-52
2023/10/20 03:02:29;;;;;;;;;;;;;;;17.67;47.94;100191.53;4939208;29;1199;-51
2023/10/20 03:04:55;;;;;;;;;;;;;;;17.26;47.49;100189.25;4939245;29;1006;-49
2023/10/20 03:07:24;;;;;;;;;;;;;;;17.10;46.56;100183.94;4939754;29;1081;-55
2023/10/20 03:09:53;;;;;;;;;;;;;;;16.94;45.88;100190.69;4939816;29;1146;-51
2023/10/20 03:12:18;;;;;;;;;;;;;;;16.80;45.63;100178.75;4926918;29;1057;-54
2023/10/20 03:14:44;;;;;;;;;;;;;;;16.75;45.17;100174.94;4939610;29;1065;-59
2023/10/20 03:17:11;;;;;;;;;;;;;;;17.97;47.09;100175.72;4939363;29;1985;-56
2023/10/20 03:19:36;;;;;;;;;;;;;;;17.13;47.58;100177.06;4926149;29;1201;-55
2023/10/20 03:22:02;;;;;;;;;;;;;;;16.85;46.94;100173.19;4938811;29;1173;-52
2023/10/20 03:24:28;;;;;;;;;;;;;;;16.80;45.85;100171.31;4931573;29;2284;-57
2023/10/20 03:26:54;;;;;;;;;;;;;;;16.77;45.47;100167.25;4931772;29;1861;-57
2023/10/20 03:29:19;;;;;;;;;;;;;;;17.58;46.90;100154.78;4930056;29;2140;-55
2023/10/20 03:31:45;;;;;;;;;;;;;;;16.86;47.37;100166.63;4922392;29;1973;-55
2023/10/20 03:34:10;;;;;;;;;;;;;;;16.87;46.85;100157.25;4931327;29;2102;-54
2023/10/20 03:36:36;;;;;;;;;;;;;;;17.89;47.10;100152.44;4928518;29;1979;-56
2023/10/20 03:39:02;;;;;;;;;;;;;;;17.19;47.56;100162.13;4925428;29;2216;-56
2023/10/20 03:41:29;;;;;;;;;;;;;;;16.89;46.88;100163.31;4933799;29;1104;-54
2023/10/20 03:43:54;;;;;;;;;;;;;;;16.99;46.93;100151.41;4919771;29;1125;-51
2023/10/20 03:46:20;;;;;;;;;;;;;;;17.27;47.49;100153.25;4924937;29;1150;-53
2023/10/20 03:48:45;;;;;;;;;;;;;;;16.98;46.80;100155.25;4937541;29;1037;-56
2023/10/20 03:51:12;;;;;;;;;;;;;;;16.84;46.00;100150.41;4932095;29;1089;-51
2023/10/20 03:53:46;;;;;;;;;;;;;;;17.72;47.16;100146.63;4925927;29;1046;-49
2023/10/20 03:56:12;;;;;;;;;;;;;;;17.08;47.42;100128.50;4945265;29;1911;-44
2023/10/20 03:58:42;;;;;;;;;;;;;;;16.95;46.45;100128.38;4927018;29;1600;-56
2023/10/20 04:01:07;;;;;;;;;;;;;;;17.17;47.46;100136.91;4938557;29;1264;-54
2023/10/20 04:03:33;;;;;;;;;;;;;;;17.44;47.67;100135.47;4935439;29;1274;-51
2023/10/20 04:06:00;;;;;;;;;;;;;;;16.98;47.09;100128.59;4942958;29;1147;-52
2023/10/20 04:08:26;;;;;;;;;;;;;;;16.99;47.35;100132.16;4938051;29;2451;-51
2023/10/20 04:10:57;;;;;;;;;;;;;;;17.51;47.71;100124.91;4938560;29;1104;-52
2023/10/20 04:13:25;;;;;;;;;;;;;;;17.06;47.05;100140.88;4930666;29;939;-47
2023/10/20 04:15:54;;;;;;;;;;;;;;;18.22;47.06;100126.94;4938142;29;1914;-49
2023/10/20 04:18:19;;;;;;;;;;;;;;;17.33;48.04;100134.75;4925613;29;1070;-48
2023/10/20 04:20:48;;;;;;;;;;;;;;;17.08;47.26;100131.25;4926129;29;1125;-49
2023/10/20 04:23:13;;;;;;;;;;;;;;;16.99;46.92;100130.22;4930883;29;1431;-51
2023/10/20 04:25:39;;;;;;;;;;;;;;;17.54;47.96;100131.75;4918671;29;1348;-51
2023/10/20 04:47:16;;;;;;;;;;;;;;;17.00;49.08;100123.63;4938005;29;1049;-53
2023/10/20 05:07:52;;;;;;;;;;;;;;;16.75;50.07;100152.16;4934796;29;1169;-48
2023/10/20 05:10:17;;;;;;;;;;;;;;;16.56;50.44;100152.88;4941126;29;2424;-54
2023/10/20 05:12:43;;;;;;;;;;;;;;;17.39;48.85;100152.84;4939011;29;1014;-51
2023/10/20 05:15:10;;;;;;;;;;;;;;;17.13;49.40;100168.00;4927009;29;1372;-52
2023/10/20 05:17:36;;;;;;;;;;;;;;;16.82;49.97;100173.78;4940492;29;2003;-48
2023/10/20 05:20:05;;;;;;;;;;;;;;;16.60;50.61;100167.66;4941088;29;1010;-48
2023/10/20 05:22:30;;;;;;;;;;;;;;;17.69;48.47;100158.22;4938635;29;1077;-49
2023/10/20 05:24:56;;;;;;;;;;;;;;;17.11;49.36;100160.06;4927688;29;994;-55
2023/10/20 05:27:22;;;;;;;;;;;;;;;16.83;50.41;100153.44;4934595;29;1050;-55
2023/10/20 05:29:48;;;;;;;;;;;;;;;16.65;50.87;100149.50;4922184;29;1018;-55
2023/10/20 05:32:15;;;;;;;;;;;;;;;16.52;50.89;100149.09;4924511;29;1093;-58
2023/10/20 05:34:40;;;;;;;;;;;;;;;16.42;51.12;100160.97;4940539;29;1275;-55
2023/10/20 05:37:06;;;;;;;;;;;;;;;16.39;51.43;100156.03;4936717;29;1910;-56
2023/10/20 05:39:32;;;;;;;;;;;;;;;17.65;48.68;100158.00;4941030;29;1093;-58
2023/10/20 05:41:57;;;;;;;;;;;;;;;17.06;49.89;100158.16;4941181;29;1014;-56
2023/10/20 05:44:23;;;;;;;;;;;;;;;16.77;50.69;100164.50;4940893;29;1117;-56
2023/10/20 05:46:50;;;;;;;;;;;;;;;17.39;49.46;100149.25;4937956;29;1284;-56
2023/10/20 05:49:15;;;;;;;;;;;;;;;17.28;49.53;100154.09;4927558;29;1133;-54
2023/10/20 05:51:41;;;;;;;;;;;;;;;16.87;50.62;100149.00;4922239;29;1223;-53
2023/10/20 05:54:07;;;;;;;;;;;;;;;16.72;50.90;100158.25;4931276;29;1070;-53
2023/10/20 05:56:32;;;;;;;;;;;;;;;16.57;51.40;100153.69;4928559;29;1969;-52
2023/10/20 05:58:58;;;;;;;;;;;;;;;17.21;50.04;100150.88;4940834;29;1081;-51
2023/10/20 06:01:24;;;;;;;;;;;;;;;17.17;50.00;100152.56;4936129;29;1046;-54
2023/10/20 06:03:49;;;;;;;;;;;;;;;16.83;50.84;100158.94;4934786;29;1069;-56
2023/10/20 06:06:15;;;;;;;;;;;;;;;16.65;51.31;100146.75;4933897;29;1133;-56
2023/10/20 06:08:40;;;;;;;;;;;;;;;16.53;51.38;100158.13;4940365;29;995;-55
2023/10/20 06:11:06;;;;;;;;;;;;;;;17.78;48.67;100146.28;4927078;29;1105;-56
2023/10/20 06:13:32;;;;;;;;;;;;;;;17.18;50.22;100154.19;4935481;29;1169;-56
2023/10/20 06:15:59;;;;;;;;;;;;;;;16.87;51.08;100149.84;4933901;29;1910;-57
2023/10/20 06:18:24;;;;;;;;;;;;;;;16.69;51.42;100145.91;4921617;29;999;-57
2023/10/20 06:20:50;;;;;;;;;;;;;;;16.53;51.70;100139.72;4921537;29;1050;-56
2023/10/20 06:23:16;;;;;;;;;;;;;;;17.47;49.71;100147.81;4927626;29;1073;-56
2023/10/20 06:25:42;;;;;;;;;;;;;;;17.24;49.88;100144.78;4934708;29;1186;-54
2023/10/20 06:28:08;;;;;;;;;;;;;;;16.84;50.96;100149.59;4940415;29;1058;-58
2023/10/20 06:30:39;;;;;;;;;;;;;;;16.69;51.36;100145.06;4926951;29;1175;-56
2023/10/20 06:35:44;;;;;;;;;;;;;;;16.74;51.50;100136.78;4939625;29;1077;-58
2023/10/20 06:40:35;;;;;;;;;;;;;;;16.95;51.04;100136.59;4937336;29;1086;-58
2023/10/20 06:43:01;;;;;;;;;;;;;;;16.70;51.63;100132.97;4929792;29;1017;-59
2023/10/20 06:45:26;;;;;;;;;;;;;;;16.64;51.72;100136.91;4945405;29;1129;-59
2023/10/20 06:47:52;;;;;;;;;;;;;;;17.77;48.97;100130.88;4939696;29;1417;-57
2023/10/20 06:50:17;;;;;;;;;;;;;;;17.09;50.72;100140.28;4936761;29;1367;-60
2023/10/20 06:52:43;;;;;;;;;;;;;;;16.80;51.51;100141.09;4939265;29;1510;-60
2023/10/20 06:55:09;;;;;;;;;;;;;;;16.64;52.02;100139.66;4939510;29;1161;-59
2023/10/20 06:57:34;;;;;;;;;;;;;;;16.51;52.13;100125.47;4939702;29;1903;-56
2023/10/20 07:00:00;;;;;;;;;;;;;;;17.45;50.29;100134.34;4939893;29;1097;-57
2023/10/20 07:02:26;;;;;;;;;;;;;;;17.20;50.70;100130.00;4938604;29;1284;-56
2023/10/20 07:04:51;;;;;;;;;;;;;;;16.87;51.51;100144.34;4939496;29;1231;-54
2023/10/20 07:07:18;;;;;;;;;;;;;;;16.63;52.01;100135.25;4939417;29;1547;-58
2023/10/20 07:09:44;;;;;;;;;;;;;;;16.51;52.17;100130.13;4934468;29;1142;-56
2023/10/20 07:12:10;;;;;;;;;;;;;;;17.21;50.95;100132.44;4931644;29;1163;-56
2023/10/20 07:14:36;;;;;;;;;;;;;;;17.36;50.32;100131.44;4930218;29;1093;-55
2023/10/20 07:17:03;;;;;;;;;;;;;;;16.86;51.62;100139.97;4938120;29;1973;-55
2023/10/20 07:19:29;;;;;;;;;;;;;;;16.69;52.10;100136.84;4939549;29;1158;-55
2023/10/20 07:21:55;;;;;;;;;;;;;;;16.55;52.12;100133.94;4939132;29;1049;-58
2023/10/20 07:24:21;;;;;;;;;;;;;;;16.71;52.17;100135.44;4938863;29;1069;-56
2023/10/20 07:26:46;;;;;;;;;;;;;;;17.67;49.70;100128.28;4931367;29;1220;-57
2023/10/20 07:29:12;;;;;;;;;;;;;;;16.99;51.49;100130.22;4939249;29;1119;-59
2023/10/20 07:31:39;;;;;;;;;;;;;;;16.77;52.02;100128.81;4926879;29;1121;-56
2023/10/20 07:34:09;;;;;;;;;;;;;;;17.62;50.08;100125.59;4936620;29;1373;-51
2023/10/20 07:36:35;;;;;;;;;;;;;;;17.16;50.88;100121.50;4929261;29;1915;-58
2023/10/20 07:39:00;;;;;;;;;;;;;;;16.84;51.75;100122.13;4930143;29;1088;-57
2023/10/20 07:41:26;;;;;;;;;;;;;;;16.70;52.17;100122.81;4939215;29;1002;-57
2023/10/20 07:43:51;;;;;;;;;;;;;;;16.58;52.18;100101.25;4938743;29;1205;-55
2023/10/20 07:46:17;;;;;;;;;;;;;;;16.51;52.55;100114.50;4928417;29;1006;-57
2023/10/20 07:48:42;;;;;;;;;;;;;;;17.64;50.27;100103.31;4933003;29;1367;-56
2023/10/20 07:51:08;;;;;;;;;;;;;;;17.12;51.31;100103.19;4938008;29;1378;-58
2023/10/20 07:53:34;;;;;;;;;;;;;;;16.81;51.89;100111.75;4945645;29;1064;-56
2023/10/20 07:56:00;;;;;;;;;;;;;;;16.65;52.36;100109.16;4938624;29;1898;-55
2023/10/20 07:58:26;;;;;;;;;;;;;;;16.76;52.47;100096.94;4944430;29;1208;-55
2023/10/20 08:00:51;;;;;;;;;;;;;;;17.58;50.23;100094.31;4937031;29;1172;-55
2023/10/20 08:03:17;;;;;;;;;;;;;;;16.99;51.48;100100.03;4929026;29;1094;-57
2023/10/20 08:05:42;;;;;;;;;;;;;;;16.78;52.05;100091.16;4938860;29;1213;-56
2023/10/20 08:08:08;;;;;;;;;;;;;;;16.63;52.36;100094.88;4937465;29;1031;-55
2023/10/20 08:10:35;;;;;;;;;;;;;;;16.80;52.31;100082.63;4938501;29;1394;-55
2023/10/20 08:13:02;;;;;;;;;;;;;;;17.57;50.50;100090.75;4938034;29;1057;-55
2023/10/20 08:15:28;;;;;;;;;;;;;;;16.98;51.84;100095.63;4946286;29;1163;-55
2023/10/20 08:17:53;;;;;;;;;;;;;;;16.80;52.13;100096.38;4938027;29;1973;-54
2023/10/20 08:20:19;;;;;;;;;;;;;;;16.67;52.51;100101.44;4939034;29;1157;-52
2023/10/20 08:22:45;;;;;;;;;;;;;;;16.56;52.49;100099.91;4938381;29;1271;-54
2023/10/20 08:25:11;;;;;;;;;;;;;;;16.48;52.74;100095.03;4937899;29;1222;-56
2023/10/20 08:27:36;;;;;;;;;;;;;;;17.68;50.04;100085.09;4926102;29;1157;-56
2023/10/20 08:30:02;;;;;;;;;;;;;;;17.05;51.74;100087.03;4944858;29;1382;-55
2023/10/20 08:32:28;;;;;;;;;;;;;;;16.80;52.44;100077.16;4951019;29;1088;-54
2023/10/20 08:34:53;;;;;;;;;;;;;;;16.64;52.72;100085.56;4938886;29;1038;-55
2023/10/20 08:37:19;;;;;;;;;;;;;;;16.55;52.80;100098.25;4944525;29;1973;-56
2023/10/20 08:39:45;;;;;;;;;;;;;;;17.60;50.65;100083.84;4954438;28;1304;-55
2023/10/20 08:42:15;;;;;;;;;;;;;;;17.22;51.32;100083.81;4943337;29;1051;-56
2023/10/20 08:44:40;;;;;;;;;;;;;;;16.89;52.09;100083.69;4942900;29;1197;-53
2023/10/20 08:47:07;;;;;;;;;;;;;;;16.77;52.53;100079.38;4957251;29;1121;-55
2023/10/20 08:49:33;;;;;;;;;;;;;;;16.68;52.47;100085.81;4941775;29;1046;-55
2023/10/20 08:51:59;;;;;;;;;;;;;;;16.56;52.78;100083.44;4941835;29;1090;-55
2023/10/20 08:54:24;;;;;;;;;;;;;;;17.54;50.87;100074.84;4956838;29;1134;-54
2023/10/20 08:56:50;;;;;;;;;;;;;;;17.26;51.60;100079.34;4941564;29;1922;-55
2023/10/20 08:59:16;;;;;;;;;;;;;;;16.95;52.31;100079.75;4953571;29;1368;-55
2023/10/20 09:01:42;;;;;;;;;;;;;;;16.79;52.52;100075.50;4937556;29;1459;-56
2023/10/20 09:04:07;;;;;;;;;;;;;;;16.64;52.94;100091.03;4941515;29;931;-57
2023/10/20 09:06:33;;;;;;;;;;;;;;;16.57;53.04;100085.09;4940299;29;1039;-55
2023/10/20 09:08:59;;;;;;;;;;;;;;;16.49;52.85;100085.72;4942011;29;1093;-56
2023/10/20 09:11:30;;;;;;;;;;;;;;;17.68;50.61;100079.59;4941266;29;1026;-56
2023/10/20 09:13:56;;;;;;;;;;;;;;;17.08;51.93;100076.31;4951094;29;1065;-55
2023/10/20 09:16:23;;;;;;;;;;;;;;;16.83;52.63;100076.56;4944417;29;1919;-57
2023/10/20 09:18:49;;;;;;;;;;;;;;;16.70;52.91;100058.88;4941599;29;1382;-56
2023/10/20 09:21:15;;;;;;;;;;;;;;;16.60;52.98;100057.03;4939502;29;967;-54
2023/10/20 09:23:52;;;;;;;;;;;;;;;16.56;53.18;100065.06;4940401;29;1151;-50
2023/10/20 09:26:17;;;;;;;;;;;;;;;17.78;50.40;100052.78;4928660;29;1113;-55
2023/10/20 09:28:46;;;;;;;;;;;;;;;17.15;51.88;100050.38;4940831;29;922;-54
2023/10/20 09:31:12;;;;;;;;;;;;;;;16.88;52.52;100055.38;4941098;29;1054;-54
2023/10/20 09:33:37;;;;;;;;;;;;;;;16.77;52.81;100051.09;4939944;29;1110;-54
2023/10/20 09:36:03;;;;;;;;;;;;;;;17.39;51.76;100040.16;4940947;29;1070;-55
2023/10/20 09:38:28;;;;;;;;;;;;;;;17.38;51.57;100040.47;4941246;29;1089;-54
2023/10/20 09:40:58;;;;;;;;;;;;;;;16.98;52.60;100029.72;4939138;29;881;-54
2023/10/20 09:43:26;;;;;;;;;;;;;;;16.82;52.65;100033.75;4941498;29;1030;-52
2023/10/20 09:45:52;;;;;;;;;;;;;;;16.74;53.08;100029.72;4939363;29;1058;-54
2023/10/20 09:48:20;;;;;;;;;;;;;;;16.68;52.89;100026.22;4956111;29;1099;-51
2023/10/20 09:50:47;;;;;;;;;;;;;;;16.90;52.72;100027.63;4939942;29;1193;-54
2023/10/20 09:53:15;;;;;;;;;;;;;;;17.69;50.76;100023.50;4938950;29;1104;-51
2023/10/20 09:55:45;;;;;;;;;;;;;;;17.08;52.49;100029.59;4939926;29;1166;-53
2023/10/20 09:58:11;;;;;;;;;;;;;;;16.90;52.84;100019.38;4955669;29;1989;-54
2023/10/20 10:00:37;;;;;;;;;;;;;;;16.81;53.05;100018.38;4928094;29;1217;-50
2023/10/20 10:03:03;;;;;;;;;;;;;;;16.69;53.18;100016.88;4937937;29;1105;-48
2023/10/20 10:05:29;;;;;;;;;;;;;;;16.64;53.30;100007.88;4940481;29;1125;-53
2023/10/20 10:08:03;;;;;;;;;;;;;;;16.52;53.53;100005.53;4927764;29;1122;-50
2023/10/20 10:10:28;;;;;;;;;;;;;;;16.51;53.50;99999.25;4929258;29;1062;-54
2023/10/20 10:12:59;;;;;;;;;;;;;;;16.47;53.17;99995.44;4940765;29;1070;-53
2023/10/20 10:15:33;;;;;;;;;;;;;;;17.42;51.83;99998.34;4935656;29;1295;-52
2023/10/20 10:18:05;;;;;;;;;;;;;;;17.36;51.80;99988.56;4936727;29;1910;-53
2023/10/20 10:20:30;;;;;;;;;;;;;;;16.97;52.91;99984.16;4940755;29;1113;-53
2023/10/20 10:22:59;;;;;;;;;;;;;;;16.80;53.03;99989.28;4940619;29;1090;-52
2023/10/20 10:25:41;;;;;;;;;;;;;;;16.76;53.24;99987.13;4940178;29;1002;-55
2023/10/20 10:28:10;;;;;;;;;;;;;;;16.64;53.19;99994.16;4936013;29;1209;-55
2023/10/20 10:30:37;;;;;;;;;;;;;;;16.94;53.07;99981.97;4940337;29;1185;-52
2023/10/20 10:33:02;;;;;;;;;;;;;;;17.61;51.31;99983.75;4939043;29;1280;-50
2023/10/20 10:35:29;;;;;;;;;;;;;;;17.05;52.58;99982.66;4938737;29;1111;-53
2023/10/20 10:37:54;;;;;;;;;;;;;;;16.86;53.24;99969.72;4940291;29;1914;-51
2023/10/20 10:40:22;;;;;;;;;;;;;;;16.79;53.41;99977.50;4929594;29;1081;-56
2023/10/20 10:42:51;;;;;;;;;;;;;;;16.71;53.50;99970.72;4940229;29;1077;-56
2023/10/20 10:45:21;;;;;;;;;;;;;;;16.62;53.49;99983.47;4938177;29;1053;-53
2023/10/20 10:47:47;;;;;;;;;;;;;;;17.61;51.21;99975.50;4938185;29;1040;-52
2023/10/20 10:50:15;;;;;;;;;;;;;;;17.07;52.90;99988.69;4938418;29;1429;-54
2023/10/20 10:52:40;;;;;;;;;;;;;;;16.87;53.33;99970.53;4935514;29;1095;-51
2023/10/20 10:55:06;;;;;;;;;;;;;;;16.76;53.28;99981.66;4939610;29;1018;-53
2023/10/20 10:57:33;;;;;;;;;;;;;;;16.69;53.41;99983.94;4939025;29;1985;-50
2023/10/20 10:59:58;;;;;;;;;;;;;;;16.59;53.53;99973.91;4939939;29;1054;-50
2023/10/20 11:02:24;;;;;;;;;;;;;;;16.59;53.74;99979.38;4952401;29;1280;-49
2023/10/20 11:04:49;;;;;;;;;;;;;;;17.88;51.02;99979.44;4934178;29;1025;-50
2023/10/20 11:07:15;;;;;;;;;;;;;;;17.30;52.42;99976.00;4939165;29;1054;-52
2023/10/20 11:09:41;;;;;;;;;;;;;;;17.03;53.20;99966.50;4939503;29;1406;-52
2023/10/20 11:12:10;;;;;;;;;;;;;;;16.88;53.32;99969.41;4938003;29;1077;-53
2023/10/20 11:14:38;;;;;;;;;;;;;;;16.79;53.45;99965.69;4939208;29;1370;-48
2023/10/20 11:17:03;;;;;;;;;;;;;;;16.71;53.44;99970.72;4937827;29;1910;-49
2023/10/20 11:19:29;;;;;;;;;;;;;;;16.63;53.66;99965.88;4938928;29;1390;-50
2023/10/20 11:21:54;;;;;;;;;;;;;;;17.26;52.67;99969.44;4939317;29;1060;-50
2023/10/20 11:24:26;;;;;;;;;;;;;;;17.40;52.19;99970.34;4939329;29;1271;-53
2023/10/20 11:26:56;;;;;;;;;;;;;;;17.03;53.20;99965.69;4939484;29;1054;-52
2023/10/20 11:29:22;;;;;;;;;;;;;;;16.90;53.45;99967.22;4938789;29;1396;-52
2023/10/20 11:31:48;;;;;;;;;;;;;;;16.82;53.63;99956.88;4939335;29;1331;-51
2023/10/20 11:34:14;;;;;;;;;;;;;;;16.74;53.75;99972.88;4939553;29;1126;-54
2023/10/20 11:36:39;;;;;;;;;;;;;;;16.66;53.88;99962.56;4938908;29;1906;-48
2023/10/20 11:39:06;;;;;;;;;;;;;;;17.14;53.27;99955.34;4939560;29;1118;-50
2023/10/20 11:41:32;;;;;;;;;;;;;;;17.42;52.39;99954.38;4932326;29;887;-49
2023/10/20 11:43:57;;;;;;;;;;;;;;;17.00;53.45;99958.00;4936116;29;1170;-49
2023/10/20 11:46:22;;;;;;;;;;;;;;;16.84;53.84;99958.19;4929953;29;1050;-52
2023/10/20 11:48:48;;;;;;;;;;;;;;;16.79;53.73;99954.69;4939232;29;1117;-50
2023/10/20 11:51:14;;;;;;;;;;;;;;;16.75;53.89;99955.28;4938949;29;1062;-52
2023/10/20 11:53:40;;;;;;;;;;;;;;;16.63;54.12;99951.34;4939301;29;930;-55
2023/10/20 11:56:05;;;;;;;;;;;;;;;16.55;54.12;99953.63;4938618;29;1078;-49
2023/10/20 11:58:32;;;;;;;;;;;;;;;16.56;53.92;99954.44;4939085;29;1907;-53
2023/10/20 12:00:58;;;;;;;;;;;;;;;17.55;52.34;99939.03;4929838;29;1241;-55
2023/10/20 12:03:24;;;;;;;;;;;;;;;17.11;53.10;99951.28;4935302;29;1035;-53
2023/10/20 12:05:50;;;;;;;;;;;;;;;16.90;53.59;99950.72;4930578;29;1224;-48
2023/10/20 12:08:15;;;;;;;;;;;;;;;16.75;53.91;99949.81;4938994;29;990;-47
2023/10/20 12:10:41;;;;;;;;;;;;;;;16.70;53.92;99947.13;4933978;28;1109;-47
2023/10/20 12:13:06;;;;;;;;;;;;;;;16.67;53.83;99947.72;4937228;29;1100;-50
2023/10/20 12:15:32;;;;;;;;;;;;;;;16.62;54.07;99939.56;4942746;29;1036;-50
2023/10/20 12:17:58;;;;;;;;;;;;;;;17.50;52.66;99946.56;4941406;29;1975;-57
2023/10/20 12:20:24;;;;;;;;;;;;;;;17.36;52.85;99958.31;4942817;29;1366;-56
2023/10/20 12:22:54;;;;;;;;;;;;;;;17.00;53.95;99964.34;4941407;29;1097;-56
2023/10/20 12:25:20;;;;;;;;;;;;;;;16.84;54.03;99957.38;4938916;29;1033;-55
2023/10/20 12:27:46;;;;;;;;;;;;;;;16.77;53.96;99960.50;4942704;29;1382;-56
2023/10/20 12:30:11;;;;;;;;;;;;;;;16.71;54.16;99970.72;4929709;29;867;-51
2023/10/20 12:32:37;;;;;;;;;;;;;;;16.67;54.04;99969.66;4940889;29;1108;-52
2023/10/20 12:35:04;;;;;;;;;;;;;;;17.20;53.57;99970.66;4939483;29;1412;-54
2023/10/20 12:37:32;;;;;;;;;;;;;;;17.65;52.48;99975.72;4941866;29;1960;-52
2023/10/20 12:39:59;;;;;;;;;;;;;;;17.15;53.81;99968.78;4938739;29;1010;-54
2023/10/20 12:42:26;;;;;;;;;;;;;;;16.98;54.18;99974.78;4931939;29;1097;-52
2023/10/20 12:44:51;;;;;;;;;;;;;;;16.90;54.10;99978.19;4940684;29;1046;-53
2023/10/20 12:47:19;;;;;;;;;;;;;;;16.79;54.35;99988.47;4942097;29;1025;-51
2023/10/20 12:49:44;;;;;;;;;;;;;;;16.76;54.19;99983.59;4929492;29;1168;-50
2023/10/20 12:52:12;;;;;;;;;;;;;;;16.68;54.24;99986.97;4939857;29;1298;-55
2023/10/20 12:54:41;;;;;;;;;;;;;;;16.64;54.21;99984.00;4940660;29;1034;-51
2023/10/20 12:57:07;;;;;;;;;;;;;;;17.02;54.11;99986.81;4941623;29;1910;-55
2023/10/20 12:59:32;;;;;;;;;;;;;;;17.48;53.15;99993.56;4947956;29;1362;-52
2023/10/20 13:01:58;;;;;;;;;;;;;;;17.02;54.30;99986.81;4941787;29;1395;-53
2023/10/20 13:04:23;;;;;;;;;;;;;;;16.85;54.50;99986.47;4941387;29;1085;-55
2023/10/20 13:06:49;;;;;;;;;;;;;;;16.80;54.46;99994.78;4925258;29;1112;-56
2023/10/20 13:09:14;;;;;;;;;;;;;;;16.74;54.36;99986.59;4929143;29;1050;-54
2023/10/20 13:11:40;;;;;;;;;;;;;;;16.70;54.28;99996.53;4941409;29;1129;-52
2023/10/20 13:14:05;;;;;;;;;;;;;;;16.65;54.26;99988.38;4935529;29;1132;-53
2023/10/20 13:16:31;;;;;;;;;;;;;;;16.62;54.51;99999.13;4934722;29;1977;-55
2023/10/20 13:18:56;;;;;;;;;;;;;;;17.14;53.96;99997.38;4939348;29;1212;-53
2023/10/20 13:21:24;;;;;;;;;;;;;;;17.50;53.13;99991.38;4940960;29;1200;-54
2023/10/20 13:23:50;;;;;;;;;;;;;;;17.06;54.36;99996.09;4941367;29;1109;-53
2023/10/20 13:26:15;;;;;;;;;;;;;;;16.86;54.52;99994.44;4941595;29;1081;-54
2023/10/20 13:28:41;;;;;;;;;;;;;;;16.82;54.41;99995.31;4929156;29;1045;-54